createdAt,value
2023-03-06T00:02:07.157Z,100338.56
2023-03-06T00:07:08.628Z,100334.66
2023-03-06T00:12:09.953Z,100314.94
2023-03-06T00:17:13.071Z,100317.44
2023-03-06T00:22:14.991Z,100313.38
2023-03-06T00:27:16.325Z,100301.75
2023-03-06T00:32:17.673Z,100303.28
2023-03-06T00:37:19.440Z,100299.72
2023-03-06T00:42:20.867Z,100296.47
2023-03-06T00:47:22.163Z,100296.47
2023-03-06T00:52:23.690Z,100281.84
2023-03-06T00:57:25.100Z,100277.78
2023-03-06T01:02:26.436Z,100271.66
2023-03-06T01:07:28.512Z,100269.25
2023-03-06T01:12:29.862Z,100265.72
2023-03-06T01:17:31.163Z,100265.53
2023-03-06T01:22:32.500Z,100257.84
2023-03-06T01:27:33.827Z,100253.09
2023-03-06T01:32:35.249Z,100252.34
2023-03-06T01:37:37.310Z,100246.13
2023-03-06T01:42:38.827Z,100245.69
2023-03-06T01:47:40.287Z,100236.78
2023-03-06T01:52:52.922Z,100225.34
2023-03-06T01:57:57.599Z,100218.19
2023-03-06T02:03:06.512Z,100218.63
2023-03-06T02:08:09.459Z,100209.91
2023-03-06T02:13:10.766Z,100208.44
2023-03-06T02:18:12.140Z,100203.78
2023-03-06T02:23:29.993Z,100196.56
2023-03-06T02:28:31.338Z,100197.38
2023-03-06T02:33:32.998Z,100191.06
2023-03-06T02:38:37.340Z,100180.63
2023-03-06T02:43:39.755Z,100176.44
2023-03-06T02:48:41.050Z,100171.81
2023-03-06T02:53:42.336Z,100173.19
2023-03-06T02:58:43.700Z,100162.56
2023-03-06T03:03:45.260Z,100155.63
2023-03-06T03:08:46.570Z,100147.09
2023-03-06T03:13:47.868Z,100151.91
2023-03-06T03:18:50.958Z,100153.25
2023-03-06T03:23:52.286Z,100151.28
2023-03-06T03:28:53.574Z,100157.53
2023-03-06T03:33:54.866Z,100153.19
2023-03-06T03:38:57.631Z,100155.13
2023-03-06T03:43:59.080Z,100146.63
2023-03-06T03:49:00.734Z,100141.78
2023-03-06T03:54:02.563Z,100141.56
2023-03-06T03:59:03.862Z,100135.63
2023-03-06T04:04:05.338Z,100127.72
2023-03-06T04:09:06.916Z,100124.91
2023-03-06T04:14:09.733Z,100121.31
2023-03-06T04:19:11.675Z,100109.38
2023-03-06T04:24:13.072Z,100115.22
2023-03-06T04:29:14.386Z,100102.22
2023-03-06T04:34:15.687Z,100099.25
2023-03-06T04:39:16.997Z,100095.75
2023-03-06T04:44:18.300Z,100094.66
2023-03-06T04:49:19.635Z,100081.50
2023-03-06T04:54:20.936Z,100081.16
2023-03-06T04:59:22.239Z,100080.19
2023-03-06T05:04:23.542Z,100075.53
2023-03-06T05:09:24.908Z,100076.50
2023-03-06T05:14:28.707Z,100069.13
2023-03-06T05:19:30.090Z,100070.13
2023-03-06T05:24:31.453Z,100065.81
2023-03-06T05:29:32.829Z,100069.72
2023-03-06T05:34:34.138Z,100068.56
2023-03-06T05:39:35.559Z,100071.72
2023-03-06T05:44:37.967Z,100072.75
2023-03-06T05:49:39.407Z,100060.53
2023-03-06T05:54:40.726Z,100058.47
2023-03-06T05:59:43.214Z,100064.72
2023-03-06T06:04:44.820Z,100071.34
2023-03-06T06:09:46.326Z,100075.16
2023-03-06T06:14:47.639Z,100067.00
2023-03-06T06:19:49.157Z,100065.41
2023-03-06T06:24:50.454Z,100068.28
2023-03-06T06:29:52.549Z,100064.94
2023-03-06T06:34:53.969Z,100067.41
2023-03-06T06:39:55.315Z,100061.38
2023-03-06T06:44:56.631Z,100066.38
2023-03-06T06:49:58.000Z,100052.28
2023-03-06T06:54:59.335Z,100053.25
2023-03-06T07:00:00.645Z,100056.28
2023-03-06T07:05:04.953Z,100054.66
2023-03-06T07:10:08.243Z,100064.06
2023-03-06T07:15:12.478Z,100066.25
2023-03-06T07:20:13.994Z,100070.75
2023-03-06T07:25:15.722Z,100073.50
2023-03-06T07:30:17.158Z,100073.31
2023-03-06T07:35:20.425Z,100078.28
2023-03-06T07:40:22.742Z,100084.69
2023-03-06T07:45:24.371Z,100077.94
2023-03-06T07:50:26.076Z,100086.53
2023-03-06T07:55:27.675Z,100092.31
2023-03-06T08:00:29.012Z,100091.72
2023-03-06T08:05:30.427Z,100091.75
2023-03-06T08:10:31.774Z,100091.50
2023-03-06T08:15:33.073Z,100085.34
2023-03-06T08:20:34.399Z,100079.56
2023-03-06T08:25:36.133Z,100084.53
2023-03-06T08:30:37.431Z,100085.69
2023-03-06T08:35:39.041Z,100092.00
2023-03-06T08:40:40.443Z,100097.81
2023-03-06T08:45:41.842Z,100083.75
2023-03-06T08:50:43.147Z,100089.06
2023-03-06T08:55:44.738Z,100089.47
2023-03-06T09:00:46.522Z,100089.72
2023-03-06T09:05:47.928Z,100082.25
2023-03-06T09:10:49.308Z,100089.34
2023-03-06T09:15:50.655Z,100097.91
2023-03-06T09:20:51.980Z,100094.56
2023-03-06T09:25:53.809Z,100093.88
2023-03-06T09:30:55.205Z,100091.66
2023-03-06T09:35:56.640Z,100088.78
2023-03-06T09:40:58.115Z,100084.88
2023-03-06T09:45:59.547Z,100078.53
2023-03-06T09:51:07.415Z,100078.59
2023-03-06T09:56:16.290Z,100073.91
2023-03-06T10:01:26.823Z,100081.19
2023-03-06T10:06:30.676Z,100076.66
2023-03-06T10:11:50.614Z,100073.50
2023-03-06T10:16:51.990Z,100072.97
2023-03-06T10:21:59.341Z,100076.66
2023-03-06T10:27:16.845Z,100074.16
2023-03-06T10:32:42.827Z,100072.63
2023-03-06T10:37:49.520Z,100070.69
2023-03-06T10:42:58.777Z,100073.69
2023-03-06T10:48:11.892Z,100073.41
2023-03-06T10:53:26.552Z,100077.94
2023-03-06T10:58:27.870Z,100077.56
2023-03-06T11:03:29.504Z,100075.66
2023-03-06T11:08:31.248Z,100070.56
2023-03-06T11:13:36.527Z,100063.50
2023-03-06T11:18:42.741Z,100053.91
2023-03-06T11:23:45.673Z,100066.34
2023-03-06T11:28:47.053Z,100050.09
2023-03-06T11:33:51.188Z,100052.19
2023-03-06T11:38:53.967Z,100044.88
2023-03-06T11:44:04.549Z,100039.69
2023-03-06T11:49:22.102Z,100034.41
2023-03-06T11:54:23.648Z,100027.84
2023-03-06T11:59:43.609Z,100023.00
2023-03-06T12:04:57.294Z,100020.31
2023-03-06T12:10:01.684Z,100009.06
2023-03-06T12:15:19.388Z,100002.13
2023-03-06T12:20:20.721Z,99991.50
2023-03-06T12:25:22.355Z,99998.25
2023-03-06T12:30:29.486Z,99996.41
2023-03-06T12:35:48.227Z,99986.53
2023-03-06T12:41:08.103Z,99993.63
2023-03-06T12:46:12.386Z,99979.78
2023-03-06T12:51:16.860Z,99978.34
2023-03-06T12:56:18.933Z,99970.38
2023-03-06T13:01:38.873Z,99976.59
2023-03-06T13:06:58.838Z,99965.56
2023-03-06T13:12:09.827Z,99960.28
2023-03-06T13:17:34.295Z,99957.63
2023-03-06T13:22:35.758Z,99956.72
2023-03-06T13:27:52.670Z,99951.44
2023-03-06T13:32:55.006Z,99951.13
2023-03-06T13:37:56.808Z,99943.22
2023-03-06T13:43:06.990Z,99941.91
2023-03-06T13:48:42.729Z,99936.50
2023-03-06T13:53:44.690Z,99936.13
2023-03-06T13:59:04.934Z,99931.88
2023-03-06T14:04:12.300Z,99930.63
2023-03-06T14:09:18.893Z,99937.16
2023-03-06T14:14:27.916Z,99934.28
2023-03-06T14:19:31.239Z,99933.91
2023-03-06T14:24:38.164Z,99925.94
2023-03-06T14:29:39.475Z,99923.44
2023-03-06T14:34:45.439Z,99921.03
2023-03-06T14:39:46.924Z,99925.00
2023-03-06T14:44:49.207Z,99915.59
2023-03-06T14:50:09.581Z,99914.78
2023-03-06T14:55:12.083Z,99914.59
2023-03-06T15:00:17.290Z,99917.22
2023-03-06T15:05:21.697Z,99917.03
2023-03-06T15:10:24.578Z,99909.88
2023-03-06T15:15:27.452Z,99906.72
2023-03-06T15:20:42.805Z,99914.50
2023-03-06T15:25:55.181Z,99915.19
2023-03-06T15:31:04.081Z,99918.28
2023-03-06T15:36:06.409Z,99912.94
2023-03-06T15:41:20.709Z,99910.00
2023-03-06T15:46:22.020Z,99915.09
2023-03-06T15:51:23.388Z,99908.84
2023-03-06T15:56:28.527Z,99906.78
2023-03-06T16:01:29.922Z,99905.63
2023-03-06T16:06:31.276Z,99907.22
2023-03-06T16:11:43.292Z,99908.81
2023-03-06T16:16:45.162Z,99900.69
2023-03-06T16:21:46.552Z,99898.34
2023-03-06T16:26:50.782Z,99899.50
2023-03-06T16:31:52.252Z,99897.22
2023-03-06T16:36:53.548Z,99889.50
2023-03-06T16:41:55.153Z,99895.50
2023-03-06T16:46:59.948Z,99891.38
2023-03-06T16:52:01.261Z,99888.94
2023-03-06T16:57:02.585Z,99885.53
2023-03-06T17:02:03.918Z,99886.56
2023-03-06T17:07:05.228Z,99887.09
2023-03-06T17:12:06.675Z,99890.34
2023-03-06T17:17:08.000Z,99889.72
2023-03-06T17:22:09.298Z,99885.28
2023-03-06T17:27:10.769Z,99887.00
2023-03-06T17:32:12.422Z,99880.41
2023-03-06T17:37:13.817Z,99891.09
2023-03-06T17:42:15.548Z,99890.31
2023-03-06T17:47:16.872Z,99890.47
2023-03-06T17:52:18.201Z,99877.41
2023-03-06T17:57:19.493Z,99877.50
2023-03-06T18:02:20.812Z,99870.06
2023-03-06T18:07:22.437Z,99874.09
2023-03-06T18:12:23.771Z,99877.63
2023-03-06T18:17:25.127Z,99877.81
2023-03-06T18:22:26.489Z,99861.03
2023-03-06T18:27:27.802Z,99860.47
2023-03-06T18:32:29.177Z,99847.50
2023-03-06T18:37:30.559Z,99846.78
2023-03-06T18:42:31.862Z,99859.25
2023-03-06T18:47:33.693Z,99865.16
2023-03-06T18:52:35.041Z,99848.25
2023-03-06T18:57:36.407Z,99851.31
2023-03-06T19:02:37.727Z,99846.16
2023-03-06T19:07:39.031Z,99854.53
2023-03-06T19:12:40.337Z,99855.03
2023-03-06T19:17:41.634Z,99851.47
2023-03-06T19:22:42.928Z,99856.63
2023-03-06T19:27:45.978Z,99857.91
2023-03-06T19:32:47.397Z,99843.41
2023-03-06T19:37:48.767Z,99832.97
2023-03-06T19:42:50.768Z,99821.66
2023-03-06T19:47:55.386Z,99823.84
2023-03-06T19:52:57.419Z,99819.47
2023-03-06T19:57:58.743Z,99821.06
2023-03-06T20:03:00.117Z,99811.47
2023-03-06T20:08:01.468Z,99800.06
2023-03-06T20:13:02.742Z,99794.88
2023-03-06T20:18:05.791Z,99789.88
2023-03-06T20:23:07.077Z,99781.97
2023-03-06T20:28:08.381Z,99778.09
2023-03-06T20:33:09.673Z,99780.56
2023-03-06T20:38:11.214Z,99775.38
2023-03-06T20:43:12.509Z,99756.97
2023-03-06T20:48:13.804Z,99764.25
2023-03-06T20:53:15.116Z,99764.09
2023-03-06T20:58:16.639Z,99762.09
2023-03-06T21:03:17.966Z,99759.34
2023-03-06T21:08:19.303Z,99749.47
2023-03-06T21:13:20.619Z,99749.47
2023-03-06T21:18:21.911Z,99734.94
2023-03-06T21:23:23.213Z,99724.28
2023-03-06T21:28:24.888Z,99720.53
2023-03-06T21:33:26.344Z,99723.94
2023-03-06T21:38:27.727Z,99709.41
2023-03-06T21:43:29.036Z,99714.06
2023-03-06T21:48:30.653Z,99709.22
2023-03-06T21:53:32.201Z,99707.44
2023-03-06T21:58:33.577Z,99697.44
2023-03-06T22:03:34.913Z,99693.38
2023-03-06T22:08:36.371Z,99684.13
2023-03-06T22:13:38.036Z,99675.81
2023-03-06T22:18:39.413Z,99677.00
2023-03-06T22:23:40.833Z,99670.34
2023-03-06T22:28:42.181Z,99675.72
2023-03-06T22:33:43.478Z,99660.72
2023-03-06T22:38:46.141Z,99668.06
2023-03-06T22:43:47.688Z,99656.19
2023-03-06T22:48:49.122Z,99652.00
2023-03-06T22:53:50.676Z,99647.19
2023-03-06T22:58:52.160Z,99640.88
2023-03-06T23:03:54.900Z,99638.63
2023-03-06T23:09:00.824Z,99641.22
2023-03-06T23:14:02.327Z,99638.94
2023-03-06T23:19:04.387Z,99628.09
2023-03-06T23:24:06.842Z,99622.13
2023-03-06T23:29:08.138Z,99611.34
2023-03-06T23:34:11.448Z,99616.63
2023-03-06T23:39:12.808Z,99609.31
2023-03-06T23:44:14.135Z,99594.97
2023-03-06T23:49:15.450Z,99594.97
2023-03-06T23:54:18.178Z,99590.34
2023-03-06T23:59:19.501Z,99589.78
